• Join FlightAware (Why Join?)
  • Login
  • US Flag 
09:24PM EDT


 

Airport Tracker/Info


-or-


 

Live Flight TrackerFlight Track Log ✈ CTL13 ✈ 22-Apr-2013 ✈ KEYE - KMDW

Flight Track Log - Related Links

Times and Time Zones

All times are in EDT time to prevent confusion due to time zone crossing. See the CTL13 flight status page for this flight to view local times or setup timezone preferences in your user account.

Time Position Orientation Groundspeed Altitude Reporting Facility
EDT Latitude Longitude Course Direction KTS MPH feet Rate Location/Type
08:20PM 39.9167 -86.3000 303° West 164 189 2,300  Level Indianapolis TRACON
08:21PM 39.9333 -86.3333 303° West 174 200 2,700 420 Climbing Indianapolis TRACON
08:22PM 39.9833 -86.3667 333° Northwest 178 205 3,100 420 Climbing Indianapolis TRACON
08:23PM 40.0167 -86.4167 311° West 175 201 3,700 360 Climbing Indianapolis TRACON
08:25PM 40.0732 -86.5013 311° West  Level FlightAware Approximate
08:28PM 40.1986 -86.6244 320° Northwest 179 206 5,600  Level Chicago Center
08:28PM 40.2169 -86.6536 309° West 179 206 5,800 240 Climbing Chicago Center
08:29PM 40.2336 -86.6689 325° Northwest 177 204 5,900 180 Climbing Chicago Center
08:29PM 40.2508 -86.6967 309° West 177 204 6,000 60 Climbing Chicago Center
08:30PM 40.2692 -86.7133 325° Northwest 177 204 6,000 60 Level Chicago Center
08:30PM 40.2908 -86.7428 314° West 180 207 6,100  Climbing Chicago Center
08:31PM 40.3131 -86.7678 319° Northwest 180 207 6,000 -120 Descending Chicago Center
08:31PM 40.3267 -86.7886 311° West 182 209 6,000  Level Chicago Center
08:32PM 40.3090 -86.8031 320° Northwest  Level FlightAware Approximate
08:32PM 40.3508 -86.8111 325° Northwest 180 207 6,000  Level Chicago Center
08:32PM 40.3564 -86.8289 292° West 180 207 6,000  Level Chicago Center
08:33PM 40.3447 -86.8420 320° Northwest  Level FlightAware Approximate
08:33PM 40.3967 -86.8722 321° Northwest 178 205 6,000  Level Chicago Center
08:34PM 40.4208 -86.9003 319° Northwest 177 204 6,000  Level Chicago Center
08:34PM 40.4367 -86.9186 319° Northwest 175 201 6,000  Level Chicago Center
08:35PM 40.4586 -86.9408 322° Northwest 177 204 6,000 60 Level Chicago Center
08:35PM 40.4725 -86.9619 311° West 179 206 6,100  Climbing Chicago Center
08:36PM 40.4939 -86.9864 319° Northwest 177 204 6,000 -120 Descending Chicago Center
08:36PM 40.5103 -87.0111 311° West 178 205 6,000  Level Chicago Center
08:37PM 40.5433 -87.0283 338° Northwest 177 204 6,000  Level Chicago Center
08:37PM 40.5592 -87.0364 339° North 182 209 6,000  Level Chicago Center
08:38PM 40.5917 -87.0519 340° North 184 212 6,000  Level Chicago Center
08:38PM 40.6044 -87.0586 338° Northwest 183 211 6,000  Level Chicago Center
08:39PM 40.6583 -87.0650 355° North 187 215 6,000  Level Chicago Center
08:40PM 40.7042 -87.0681 357° North 187 215 6,000  Level Chicago Center
08:41PM 40.7444 -87.0719 356° North 187 215 6,000  Level Chicago Center
08:42PM 40.7967 -87.0772 356° North 189 217 6,000  Level Chicago Center
08:43PM 40.8539 -87.0997 343° North 185 213 6,000  Level Chicago Center
08:44PM 40.8992 -87.1308 333° Northwest 187 215 6,000  Level Chicago Center
08:45PM 40.9425 -87.1636 330° Northwest 182 209 6,000 -60 Level Chicago Center
08:46PM 40.9883 -87.1950 333° Northwest 184 212 5,900 -60 Descending Chicago Center
08:47PM 41.0325 -87.2256 332° Northwest 182 209 5,900  Level Chicago Center
08:48PM 41.0761 -87.2561 332° Northwest 181 208 5,900  Level Chicago Center
08:49PM 41.1300 -87.2922 333° Northwest 181 208 5,900 -300 Level Chicago Center
08:50PM 41.1775 -87.3261 332° Northwest 191 220 5,400 -540 Descending Chicago Center
08:51PM 41.2275 -87.3617 332° Northwest 201 231 4,800 -660 Descending Chicago Center
08:52PM 41.2781 -87.4000 330° Northwest 207 238 4,100 -420 Descending Chicago Center
08:53PM 41.3267 -87.4381 330° Northwest 207 238 4,000 -120 Descending Chicago Center
08:54PM 41.3739 -87.4731 331° Northwest 203 234 3,900  Descending Chicago Center
08:55PM 41.4292 -87.5133 331° Northwest 196 226 4,000  Climbing Chicago Center
08:56PM 41.4728 -87.5511 327° Northwest 191 220 3,900 -60 Descending Chicago Center
08:57PM 41.5064 -87.6036 311° West 189 217 3,900  Level Chicago Center
08:58PM 41.5369 -87.6589 306° West 187 215 3,900  Level Chicago Center
09:00PM 41.5686 -87.7131 308° West 187 215 3,900  Level Chicago Center
09:01PM 41.6078 -87.7769 309° West 187 215 3,900  Level Chicago Center
09:02PM 41.6500 -87.8333 315° West 187 215 3,900 -120 Level Chicago TRACON
09:03PM 41.6833 -87.9000 304° West 192 221 3,700 -480 Descending Chicago TRACON
09:04PM 41.7167 -87.9253 330° Northwest 205 236 3,000 -960 Descending Chicago Center
09:05PM 41.7642 -87.8872 31° Northeast 207 238 1,900 -660 Descending Chicago Center
09:06PM 41.7983 -87.8258 53° Northeast 186 214 1,700 -360 Descending Chicago Center
09:07PM 41.8000 -87.7833 87° East 130 150 1,200 -540 Descending Chicago TRACON